Time;durP1;ratioP1;P1;durP2;ratioP2;P2;SDS_P1;SDS_P2;PMS_P1;PMS_P2;Temp;Humidity;BMP_temperature;BMP_pressure;BME280_temperature;BME280_humidity;BME280_pressure;Samples;Min_cycle;Max_cycle;Signal;HPM_P1;HPM_P2
2022/12/01 00:00:38;;;;;;;31.92;18.95;;;;;;;5.95;100.00;101133.91;5004355;28;20211;-75
2022/12/01 00:03:06;;;;;;;34.00;17.73;;;;;;;5.91;100.00;101140.16;5010606;28;20207;-73
2022/12/01 00:05:33;;;;;;;28.10;17.33;;;;;;;5.81;100.00;101140.28;5013541;28;20665;-72
2022/12/01 00:07:59;;;;;;;35.38;18.88;;;;;;;5.74;100.00;101140.38;5005841;28;20192;-75
2022/12/01 00:10:25;;;;;;;32.55;18.30;;;;;;;5.76;100.00;101144.81;4995983;28;20297;-74
2022/12/01 00:12:52;;;;;;;36.47;18.50;;;;;;;5.69;100.00;101144.91;5003008;28;20307;-74
2022/12/01 00:15:19;;;;;;;31.00;17.85;;;;;;;5.73;100.00;101142.19;5013258;28;20435;-72
2022/12/01 00:17:46;;;;;;;39.28;20.08;;;;;;;5.71;100.00;101143.09;5007625;28;20309;-73
2022/12/01 00:20:15;;;;;;;38.08;18.10;;;;;;;5.74;100.00;101151.06;5010216;28;20205;-73
2022/12/01 00:22:43;;;;;;;34.70;18.73;;;;;;;5.74;100.00;101148.41;5002239;28;20562;-73
2022/12/01 00:25:09;;;;;;;34.78;18.60;;;;;;;5.67;100.00;101152.94;5007254;28;20671;-73
2022/12/01 00:27:36;;;;;;;40.65;19.58;;;;;;;5.61;100.00;101156.59;5022736;28;20582;-74
2022/12/01 00:30:03;;;;;;;37.53;19.58;;;;;;;5.59;100.00;101157.53;5017096;28;20662;-74
2022/12/01 00:32:30;;;;;;;34.28;19.48;;;;;;;5.51;100.00;101154.94;5014916;28;20785;-75
2022/12/01 00:34:56;;;;;;;32.97;19.00;;;;;;;5.54;100.00;101156.66;5027432;28;20282;-73
2022/12/01 00:37:24;;;;;;;37.72;20.13;;;;;;;5.59;100.00;101158.41;5016276;28;20228;-73
2022/12/01 00:39:51;;;;;;;37.13;19.42;;;;;;;5.55;100.00;101150.44;5026365;28;20235;-74
2022/12/01 00:42:19;;;;;;;37.55;18.88;;;;;;;5.53;100.00;101163.81;5023044;28;20205;-73
2022/12/01 00:44:46;;;;;;;33.50;18.98;;;;;;;5.53;100.00;101155.78;5024696;28;20588;-73
2022/12/01 00:47:12;;;;;;;37.88;20.50;;;;;;;5.51;100.00;101157.59;5026349;28;20285;-72
2022/12/01 00:49:39;;;;;;;40.45;21.38;;;;;;;5.56;100.00;101165.56;5020900;28;20299;-74
2022/12/01 00:52:06;;;;;;;44.00;22.73;;;;;;;5.60;100.00;101157.47;5015839;28;20226;-74
2022/12/01 00:54:34;;;;;;;38.63;23.85;;;;;;;5.51;100.00;101160.28;5011748;28;20218;-75
2022/12/01 00:57:00;;;;;;;36.33;21.15;;;;;;;5.43;100.00;101162.19;5024214;28;20690;-72
2022/12/01 00:59:27;;;;;;;36.75;20.77;;;;;;;5.43;100.00;101167.50;4998163;28;20204;-72
2022/12/01 01:01:53;;;;;;;39.40;21.42;;;;;;;5.44;100.00;101161.25;5024079;28;20309;-73
2022/12/01 01:04:20;;;;;;;35.13;20.45;;;;;;;5.43;100.00;101159.50;5023993;28;20205;-73
2022/12/01 01:06:47;;;;;;;44.03;21.85;;;;;;;5.53;100.00;101162.94;5014532;28;20236;-73
2022/12/01 01:09:16;;;;;;;38.85;20.25;;;;;;;5.50;100.00;101162.97;5017799;28;20197;-75
2022/12/01 01:11:44;;;;;;;37.33;20.38;;;;;;;5.43;100.00;101167.50;5013320;28;20292;-73
2022/12/01 01:14:11;;;;;;;38.50;19.55;;;;;;;5.48;100.00;101171.00;5003238;28;20224;-74
2022/12/01 01:16:37;;;;;;;37.17;21.35;;;;;;;5.52;100.00;101171.88;4993446;28;20230;-74
2022/12/01 01:19:04;;;;;;;39.83;21.60;;;;;;;5.49;100.00;101177.22;5009391;28;20207;-74
2022/12/01 01:21:30;;;;;;;39.00;21.20;;;;;;;5.48;100.00;101179.03;5013345;28;20201;-72
2022/12/01 01:23:57;;;;;;;38.63;21.00;;;;;;;5.46;100.00;101180.81;5016670;28;20196;-74
2022/12/01 01:26:25;;;;;;;35.85;20.33;;;;;;;5.51;100.00;101181.66;5016231;28;20307;-72
2022/12/01 01:28:53;;;;;;;39.17;21.58;;;;;;;5.57;100.00;101178.91;5029086;28;20209;-74
2022/12/01 01:31:23;;;;;;;39.13;21.25;;;;;;;5.61;100.00;101180.66;5015380;28;20211;-73
2022/12/01 01:33:50;;;;;;;38.72;21.15;;;;;;;5.56;100.00;101190.50;5020214;28;20226;-74
2022/12/01 01:36:18;;;;;;;36.60;21.00;;;;;;;5.55;100.00;101187.84;5026825;28;20234;-75
2022/12/01 01:38:46;;;;;;;38.30;20.60;;;;;;;5.54;100.00;101197.66;5022563;28;20215;-73
2022/12/01 01:41:13;;;;;;;41.72;22.00;;;;;;;5.47;100.00;101190.59;5021604;28;20204;-75
2022/12/01 01:43:46;;;;;;;37.85;21.23;;;;;;;5.53;100.00;101195.88;5026207;28;20636;-73
2022/12/01 01:46:16;;;;;;;39.50;22.02;;;;;;;5.51;100.00;101197.69;5018873;28;20248;-73
2022/12/01 01:48:46;;;;;;;36.33;20.30;;;;;;;5.55;100.00;101195.88;5006601;28;20828;-74
2022/12/01 01:51:14;;;;;;;35.15;20.10;;;;;;;5.57;100.00;101202.97;5010531;28;20201;-74
2022/12/01 01:53:41;;;;;;;33.38;19.85;;;;;;;5.58;100.00;101196.69;5014880;28;20266;-74
2022/12/01 01:56:08;;;;;;;36.60;21.63;;;;;;;5.57;100.00;101200.28;5006704;28;20229;-70
2022/12/01 01:58:36;;;;;;;37.88;20.92;;;;;;;5.61;100.00;101203.81;5005782;28;20255;-74
2022/12/01 02:01:03;;;;;;;39.78;19.90;;;;;;;5.68;100.00;101193.94;5007881;28;20290;-73
2022/12/01 02:03:32;;;;;;;41.53;22.63;;;;;;;5.70;100.00;101205.47;5011674;28;20209;-75
2022/12/01 02:05:59;;;;;;;35.90;20.13;;;;;;;5.70;100.00;101198.34;5003201;28;20313;-73
2022/12/01 02:08:26;;;;;;;37.80;20.73;;;;;;;5.69;100.00;101196.56;4996439;28;20203;-74
2022/12/01 02:11:08;;;;;;;34.05;20.17;;;;;;;5.67;100.00;101198.38;5014003;28;20677;-75
2022/12/01 02:13:47;;;;;;;38.83;20.60;;;;;;;5.71;100.00;101196.56;5017289;28;20204;-74
2022/12/01 02:16:20;;;;;;;38.25;21.23;;;;;;;5.65;100.00;101192.16;5036414;28;20231;-73
2022/12/01 02:18:56;;;;;;;33.30;19.58;;;;;;;5.69;100.00;101190.34;5006324;28;20197;-72
2022/12/01 02:21:29;;;;;;;39.80;20.17;;;;;;;5.59;100.00;101193.13;5015877;28;20228;-72
2022/12/01 02:24:32;;;;;;;33.08;20.02;;;;;;;5.66;100.00;101198.41;5014795;28;20197;-73
2022/12/01 02:27:05;;;;;;;48.97;21.98;;;;;;;5.54;100.00;101203.00;5015135;28;20229;-73
2022/12/01 02:30:00;;;;;;;31.25;19.58;;;;;;;5.58;100.00;101196.69;5020492;28;20196;-73
2022/12/01 02:32:33;;;;;;;33.95;20.25;;;;;;;5.66;100.00;101195.75;5023018;28;20590;-73
2022/12/01 02:35:08;;;;;;;34.55;20.95;;;;;;;5.67;100.00;101189.47;5021083;28;20224;-74
2022/12/01 02:37:41;;;;;;;35.78;20.63;;;;;;;5.64;100.00;101188.63;5014623;28;20216;-74
2022/12/01 02:40:15;;;;;;;35.80;20.75;;;;;;;5.60;100.00;101192.22;5019169;28;20288;-74
2022/12/01 02:42:50;;;;;;;38.65;22.40;;;;;;;5.61;100.00;101194.00;5015198;28;20695;-72
2022/12/01 02:45:23;;;;;;;35.15;20.60;;;;;;;5.43;100.00;101189.75;5017103;28;21643;-72
2022/12/01 02:47:56;;;;;;;35.35;20.50;;;;;;;5.38;100.00;101194.28;5019513;28;20228;-72
2022/12/01 02:50:25;;;;;;;36.58;20.13;;;;;;;5.46;100.00;101188.84;5025708;28;20250;-73
2022/12/01 02:52:53;;;;;;;37.60;20.52;;;;;;;5.43;100.00;101192.44;5014959;28;20259;-73
2022/12/01 02:55:20;;;;;;;37.70;20.25;;;;;;;5.42;100.00;101197.78;5007200;28;20201;-74
2022/12/01 02:57:47;;;;;;;35.90;20.13;;;;;;;5.42;100.00;101197.78;5014887;28;20304;-75
2022/12/01 03:00:16;;;;;;;38.15;20.05;;;;;;;5.43;100.00;101196.91;5022717;28;20582;-74
2022/12/01 03:02:56;;;;;;;34.22;20.13;;;;;;;5.54;100.00;101199.44;5009743;28;20202;-73
2022/12/01 03:05:28;;;;;;;33.33;19.45;;;;;;;5.57;100.00;101192.28;5022145;28;20197;-73
2022/12/01 03:08:03;;;;;;;43.50;21.48;;;;;;;5.58;100.00;101204.72;5014449;28;20659;-73
2022/12/01 03:10:41;;;;;;;38.22;21.38;;;;;;;5.50;100.00;101198.59;5031965;28;20202;-74
2022/12/01 03:13:15;;;;;;;38.30;20.55;;;;;;;5.58;100.00;101193.16;5024949;28;20616;-72
2022/12/01 03:15:54;;;;;;;34.08;20.30;;;;;;;5.50;100.00;101198.59;5014788;28;20200;-72
2022/12/01 03:18:29;;;;;;;37.65;20.70;;;;;;;5.43;100.00;101195.09;5012381;28;20292;-74
2022/12/01 03:21:01;;;;;;;38.47;20.50;;;;;;;5.40;100.00;101195.16;5016125;28;20209;-72
2022/12/01 03:23:31;;;;;;;37.28;20.85;;;;;;;5.40;100.00;101192.50;5011118;28;20205;-73
2022/12/01 03:26:01;;;;;;;36.17;20.05;;;;;;;5.44;100.00;101190.66;5019942;28;20694;-76
2022/12/01 03:28:33;;;;;;;36.70;20.42;;;;;;;5.47;100.00;101190.59;5024067;28;20228;-74
2022/12/01 03:31:06;;;;;;;36.50;20.25;;;;;;;5.51;100.00;101188.78;5025246;28;20198;-73
2022/12/01 03:33:36;;;;;;;34.92;20.23;;;;;;;5.49;100.00;101187.91;5010108;28;20587;-74
2022/12/01 03:36:13;;;;;;;36.22;20.55;;;;;;;5.43;100.00;101187.09;5020804;28;20732;-73
2022/12/01 03:38:43;;;;;;;34.30;20.30;;;;;;;5.42;100.00;101182.63;5014017;28;20255;-74
2022/12/01 03:41:17;;;;;;;34.05;20.77;;;;;;;5.41;100.00;101185.34;5016285;28;20287;-73
2022/12/01 03:43:51;;;;;;;38.53;20.20;;;;;;;5.42;100.00;101179.97;5018873;28;20214;-73
2022/12/01 03:46:24;;;;;;;38.33;19.88;;;;;;;5.35;100.00;101191.63;5018843;28;20311;-75
2022/12/01 03:48:53;;;;;;;40.97;20.60;;;;;;;5.22;100.00;101188.22;5021554;28;20195;-74
2022/12/01 03:51:31;;;;;;;37.03;20.73;;;;;;;5.28;100.00;101203.28;5032854;28;20247;-72
2022/12/01 03:54:11;;;;;;;35.80;20.05;;;;;;;5.15;100.00;101186.50;5024092;28;20224;-72
2022/12/01 03:56:43;;;;;;;35.38;20.25;;;;;;;5.14;100.00;101194.53;5013742;28;20251;-74
2022/12/01 03:59:10;;;;;;;35.92;22.10;;;;;;;5.17;100.00;101197.19;5022656;28;20305;-74
2022/12/01 04:01:37;;;;;;;35.95;21.23;;;;;;;5.14;100.00;101203.44;5022095;28;20258;-74
2022/12/01 04:04:06;;;;;;;32.65;20.65;;;;;;;5.06;100.00;101204.41;5017532;28;20200;-75
2022/12/01 04:06:35;;;;;;;35.97;21.38;;;;;;;5.08;100.00;101202.59;5025541;28;20315;-73
2022/12/01 04:09:02;;;;;;;33.25;20.83;;;;;;;5.06;100.00;101199.94;5005935;28;20195;-74
2022/12/01 04:14:12;;;;;;;41.30;23.13;;;;;;;5.13;100.00;101200.78;5006225;28;20235;-73
2022/12/01 04:16:39;;;;;;;36.03;21.20;;;;;;;5.16;100.00;101201.63;5014768;28;20330;-75
2022/12/01 04:19:06;;;;;;;35.90;19.92;;;;;;;5.14;100.00;101214.13;5010843;28;20199;-76
2022/12/01 04:21:32;;;;;;;31.50;19.65;;;;;;;5.15;100.00;101202.53;5014953;28;20212;-74
2022/12/01 04:24:00;;;;;;;40.20;22.30;;;;;;;5.13;100.00;101204.34;5010933;28;20188;-74
2022/12/01 04:26:28;;;;;;;38.03;21.00;;;;;;;5.16;100.00;101198.97;5008240;28;20279;-72
2022/12/01 04:28:54;;;;;;;36.58;21.40;;;;;;;5.08;100.00;101200.81;5014252;28;20636;-73
2022/12/01 04:31:21;;;;;;;38.03;21.40;;;;;;;5.15;100.00;101202.53;5021236;28;20565;-73
2022/12/01 04:33:48;;;;;;;41.05;22.25;;;;;;;5.16;100.00;101206.97;5016238;28;20218;-72
2022/12/01 04:36:14;;;;;;;37.25;21.77;;;;;;;5.20;100.00;101214.06;5013919;28;20513;-73
2022/12/01 04:38:41;;;;;;;40.28;22.83;;;;;;;5.18;100.00;101202.50;4996283;28;20202;-73
2022/12/01 04:41:10;;;;;;;38.05;22.25;;;;;;;5.21;100.00;101213.16;5003973;28;20210;-73
2022/12/01 04:43:37;;;;;;;37.75;22.90;;;;;;;5.25;100.00;101210.47;5015613;28;20196;-75
2022/12/01 04:46:04;;;;;;;39.63;22.17;;;;;;;5.29;100.00;101207.75;5013024;28;20220;-74
2022/12/01 04:48:31;;;;;;;37.95;22.55;;;;;;;5.31;100.00;101205.03;5013676;28;20220;-76
2022/12/01 04:50:58;;;;;;;41.60;22.38;;;;;;;5.37;100.00;101205.84;5021740;28;20228;-73
2022/12/01 04:53:24;;;;;;;38.47;21.52;;;;;;;5.37;100.00;101202.31;5022466;28;20218;-74
2022/12/01 04:55:51;;;;;;;37.13;21.20;;;;;;;5.31;100.00;101199.69;5024467;28;20220;-74
2022/12/01 04:58:19;;;;;;;38.03;20.65;;;;;;;5.30;100.00;101203.28;5029354;28;20272;-73
2022/12/01 05:00:45;;;;;;;35.35;21.40;;;;;;;5.30;100.00;101198.81;5026756;28;20643;-72
2022/12/01 05:03:12;;;;;;;35.63;19.90;;;;;;;5.29;100.00;101202.41;5017462;28;20568;-74
2022/12/01 05:05:38;;;;;;;34.03;20.05;;;;;;;5.29;100.00;101202.41;5024305;28;20205;-73
2022/12/01 05:08:05;;;;;;;37.35;21.17;;;;;;;5.33;100.00;101197.91;5020296;28;20208;-70
2022/12/01 05:10:34;;;;;;;35.97;22.15;;;;;;;5.34;100.00;101203.22;5030729;28;20704;-73
2022/12/01 05:13:01;;;;;;;38.80;22.42;;;;;;;5.31;100.00;101199.69;5025907;28;20217;-72
2022/12/01 05:15:29;;;;;;;39.47;22.65;;;;;;;5.33;100.00;101209.44;5012398;28;20220;-72
2022/12/01 05:17:55;;;;;;;39.25;22.40;;;;;;;5.31;100.00;101205.91;5020324;28;20200;-73
2022/12/01 05:23:08;;;;;;;36.08;21.75;;;;;;;5.34;100.00;101213.03;5008567;28;20203;-74
2022/12/01 05:25:36;;;;;;;33.88;20.00;;;;;;;5.36;100.00;101203.19;5014038;28;20242;-72
2022/12/01 05:28:02;;;;;;;45.42;28.98;;;;;;;5.38;100.00;101206.72;5022114;28;20296;-72
2022/12/01 05:30:30;;;;;;;44.47;24.63;;;;;;;5.39;100.00;101205.84;5008100;28;20328;-72
2022/12/01 05:32:57;;;;;;;41.45;24.55;;;;;;;5.44;100.00;101204.88;5016409;28;20204;-70
2022/12/01 05:35:23;;;;;;;37.60;20.65;;;;;;;5.46;100.00;101204.00;5021153;28;20209;-72
2022/12/01 05:37:50;;;;;;;33.42;19.95;;;;;;;5.36;100.00;101205.88;5019644;28;20235;-70
2022/12/01 05:40:17;;;;;;;38.85;22.00;;;;;;;5.33;100.00;101212.13;5024200;28;20200;-73
2022/12/01 05:42:43;;;;;;;36.83;22.23;;;;;;;5.31;100.00;101208.59;5028184;28;20200;-71
2022/12/01 05:45:10;;;;;;;38.25;20.30;;;;;;;5.38;100.00;101209.41;5016365;28;20287;-71
2022/12/01 05:47:38;;;;;;;38.20;20.75;;;;;;;5.33;100.00;101212.13;5025521;28;20212;-72
2022/12/01 05:50:06;;;;;;;35.67;21.95;;;;;;;5.27;100.00;101213.97;5019773;28;20763;-72
2022/12/01 05:52:34;;;;;;;39.30;23.15;;;;;;;5.27;100.00;101216.66;5014650;28;20209;-72
2022/12/01 05:55:01;;;;;;;40.95;23.52;;;;;;;5.30;100.00;101225.53;5016860;28;20709;-71
2022/12/01 05:57:27;;;;;;;38.47;22.08;;;;;;;5.35;100.00;101225.47;5018158;28;20722;-75
2022/12/01 05:59:54;;;;;;;36.03;21.98;;;;;;;5.22;100.00;101222.94;5017787;28;20213;-75
2022/12/01 06:02:20;;;;;;;36.80;21.17;;;;;;;5.26;100.00;101228.25;5012633;28;20201;-72
2022/12/01 06:04:48;;;;;;;34.97;19.55;;;;;;;5.22;100.00;101228.28;5015974;28;20204;-76
2022/12/01 06:07:15;;;;;;;38.58;21.25;;;;;;;5.19;100.00;101227.41;5025749;28;20764;-71
2022/12/01 06:09:41;;;;;;;39.20;22.20;;;;;;;5.13;100.00;101223.03;5016322;28;20204;-75
2022/12/01 06:12:08;;;;;;;30.58;18.13;;;;;;;5.13;100.00;101222.13;5016799;28;20209;-74
2022/12/01 06:14:34;;;;;;;31.45;18.27;;;;;;;5.10;100.00;101223.06;5013510;28;20228;-75
2022/12/01 06:17:01;;;;;;;31.00;17.90;;;;;;;5.11;100.00;101219.50;5017248;28;20226;-72
2022/12/01 06:19:27;;;;;;;31.48;17.83;;;;;;;5.14;100.00;101224.78;5030312;28;20204;-72
2022/12/01 06:21:55;;;;;;;30.40;18.60;;;;;;;5.15;100.00;101226.56;5026132;28;20202;-73
2022/12/01 06:24:22;;;;;;;34.53;19.52;;;;;;;5.14;100.00;101229.25;5013958;28;20277;-72
2022/12/01 06:26:48;;;;;;;33.10;20.70;;;;;;;5.12;100.00;101233.72;5020643;28;20221;-73
2022/12/01 06:29:15;;;;;;;31.92;19.27;;;;;;;5.10;100.00;101228.41;5017363;28;20579;-72
2022/12/01 06:31:42;;;;;;;30.40;17.40;;;;;;;5.10;100.00;101235.53;5014955;28;20592;-73
2022/12/01 06:34:09;;;;;;;27.90;16.95;;;;;;;5.07;100.00;101244.47;5015310;28;20225;-74
2022/12/01 06:36:35;;;;;;;26.75;16.00;;;;;;;4.94;100.00;101237.44;5015314;28;20224;-73
2022/12/01 06:39:07;;;;;;;27.55;16.52;;;;;;;4.92;100.00;101240.13;5014165;28;20296;-73
2022/12/01 06:41:33;;;;;;;28.25;17.45;;;;;;;4.93;100.00;101246.34;5014647;28;20194;-72
2022/12/01 06:44:01;;;;;;;29.90;18.15;;;;;;;4.91;100.00;101245.50;5014858;28;20212;-73
2022/12/01 06:46:27;;;;;;;32.03;16.98;;;;;;;4.80;100.00;101240.25;5014406;28;20784;-73
2022/12/01 06:48:54;;;;;;;28.30;16.33;;;;;;;4.74;100.00;101246.50;5013509;28;20204;-72
2022/12/01 06:51:20;;;;;;;29.90;17.05;;;;;;;4.79;100.00;101254.47;5014654;28;20206;-74
2022/12/01 06:53:47;;;;;;;32.80;18.38;;;;;;;4.72;100.00;101240.28;5014996;28;20226;-72
2022/12/01 06:56:16;;;;;;;28.77;17.73;;;;;;;4.66;100.00;101252.78;5014641;28;20224;-73
2022/12/01 06:58:43;;;;;;;29.40;16.33;;;;;;;4.77;100.00;101246.50;5014252;28;20210;-75
2022/12/01 07:01:11;;;;;;;27.55;17.15;;;;;;;4.71;100.00;101251.00;5014438;28;20199;-73
2022/12/01 07:03:38;;;;;;;24.30;15.02;;;;;;;4.73;100.00;101254.53;5014890;28;20211;-73
2022/12/01 07:06:06;;;;;;;30.25;16.42;;;;;;;4.70;100.00;101247.41;5016103;28;20231;-75
2022/12/01 07:08:32;;;;;;;27.40;14.70;;;;;;;4.61;100.00;101255.50;5024211;28;20578;-72
2022/12/01 07:11:00;;;;;;;27.35;16.48;;;;;;;4.56;100.00;101254.66;5023227;28;20237;-73
2022/12/01 07:13:28;;;;;;;25.90;15.82;;;;;;;4.57;100.00;101251.97;5015748;28;20205;-73
2022/12/01 07:15:55;;;;;;;27.17;16.23;;;;;;;4.60;100.00;101265.28;5017821;28;20643;-73
2022/12/01 07:18:22;;;;;;;26.45;14.95;;;;;;;4.64;100.00;101255.50;5017500;28;20614;-73
2022/12/01 07:20:48;;;;;;;27.55;15.75;;;;;;;4.63;100.00;101259.03;5018044;28;20209;-72
2022/12/01 07:23:15;;;;;;;26.30;15.02;;;;;;;4.60;100.00;101259.06;5015791;28;20208;-72
2022/12/01 07:25:41;;;;;;;26.25;15.35;;;;;;;4.58;100.00;101271.53;5015491;28;20257;-73
2022/12/01 07:28:08;;;;;;;27.40;16.58;;;;;;;4.67;100.00;101275.94;5014547;28;20214;-72
2022/12/01 07:30:36;;;;;;;27.38;15.70;;;;;;;4.63;100.00;101276.84;5015198;28;20622;-72
2022/12/01 07:33:02;;;;;;;27.17;14.93;;;;;;;4.59;100.00;101270.66;5017124;28;20574;-72
2022/12/01 07:35:29;;;;;;;26.08;15.80;;;;;;;4.70;100.00;101282.09;5018672;28;20288;-72
2022/12/01 07:37:56;;;;;;;28.17;15.18;;;;;;;4.70;100.00;101278.56;5018033;28;20221;-72
2022/12/01 07:40:23;;;;;;;26.80;15.55;;;;;;;4.75;100.00;101285.66;5016053;28;20206;-74
2022/12/01 07:42:50;;;;;;;27.38;16.38;;;;;;;4.78;100.00;101290.94;5015882;28;20234;-73
2022/12/01 07:45:16;;;;;;;27.13;16.00;;;;;;;4.71;100.00;101293.69;5017422;28;20209;-73
2022/12/01 07:47:44;;;;;;;26.95;15.43;;;;;;;4.71;100.00;101288.34;5015961;28;20751;-71
2022/12/01 07:50:11;;;;;;;28.83;16.85;;;;;;;4.65;100.00;101285.72;5023073;28;20224;-74
2022/12/01 07:52:38;;;;;;;30.08;16.15;;;;;;;4.66;100.00;101290.16;5030605;28;20205;-73
2022/12/01 07:55:05;;;;;;;28.35;15.45;;;;;;;4.69;100.00;101292.81;5028934;28;20289;-75
2022/12/01 07:57:32;;;;;;;25.02;15.52;;;;;;;4.73;100.00;101289.22;5016241;28;20234;-75
2022/12/01 07:59:58;;;;;;;28.10;16.50;;;;;;;4.68;100.00;101293.69;5015327;28;20231;-75
2022/12/01 08:02:25;;;;;;;25.25;15.05;;;;;;;4.66;100.00;101291.06;5015897;28;20710;-73
2022/12/01 08:04:53;;;;;;;24.65;14.95;;;;;;;4.63;100.00;101293.72;5016255;28;20663;-72
2022/12/01 08:07:19;;;;;;;27.08;15.13;;;;;;;4.57;100.00;101302.66;5016519;28;20250;-72
2022/12/01 08:09:46;;;;;;;28.60;16.38;;;;;;;4.51;100.00;101291.16;5017708;28;20215;-73
2022/12/01 08:12:12;;;;;;;28.05;16.30;;;;;;;4.58;100.00;101295.53;5017685;28;20208;-73
2022/12/01 08:14:39;;;;;;;27.73;15.38;;;;;;;4.54;100.00;101301.78;5019168;28;20231;-74
2022/12/01 08:17:05;;;;;;;23.85;14.93;;;;;;;4.60;100.00;101296.44;5016816;28;20287;-73
2022/12/01 08:19:32;;;;;;;25.63;14.82;;;;;;;4.60;100.00;101296.44;5015741;28;20581;-74
2022/12/01 08:22:00;;;;;;;25.90;14.82;;;;;;;4.67;100.00;101300.81;5017046;28;20670;-73
2022/12/01 08:24:26;;;;;;;25.63;15.23;;;;;;;4.76;100.00;101311.44;5019208;28;20201;-71
2022/12/01 08:26:53;;;;;;;26.60;14.95;;;;;;;4.81;100.00;101314.94;5017378;28;20243;-75
2022/12/01 08:29:20;;;;;;;25.45;15.50;;;;;;;4.86;100.00;101306.03;5017842;28;20290;-73
2022/12/01 08:31:46;;;;;;;25.05;15.23;;;;;;;4.93;100.00;101314.00;5018774;28;20203;-72
2022/12/01 08:34:13;;;;;;;25.30;14.25;;;;;;;5.02;100.00;101302.34;5020300;28;20229;-73
2022/12/01 08:36:39;;;;;;;24.25;14.68;;;;;;;4.95;100.00;101306.88;5019648;28;20220;-73
2022/12/01 08:39:08;;;;;;;26.88;15.93;;;;;;;5.13;100.00;101299.56;5017458;28;20684;-74
2022/12/01 08:41:35;;;;;;;22.25;13.75;;;;;;;5.22;100.00;101310.19;5018991;28;20213;-73
2022/12/01 08:44:01;;;;;;;22.65;14.93;;;;;;;5.28;100.00;101311.91;5023516;28;20230;-74
2022/12/01 08:46:31;;;;;;;24.70;14.20;;;;;;;5.36;100.00;101315.38;5022252;28;20261;-75
2022/12/01 08:48:57;;;;;;;23.02;15.75;;;;;;;5.39;100.00;101316.25;5021948;28;20211;-74
2022/12/01 08:51:25;;;;;;;24.42;14.75;;;;;;;5.33;100.00;101316.31;5020694;28;20201;-72
2022/12/01 08:53:52;;;;;;;23.25;15.30;;;;;;;5.38;100.00;101308.25;5017117;28;20279;-72
2022/12/01 08:56:23;;;;;;;24.52;14.75;;;;;;;5.32;100.00;101308.31;5015310;28;20233;-73
2022/12/01 08:58:50;;;;;;;23.80;13.80;;;;;;;5.40;100.00;101314.47;5013676;28;20201;-73
2022/12/01 09:01:18;;;;;;;25.48;15.43;;;;;;;5.51;100.00;101309.91;5016063;28;20209;-72
2022/12/01 09:03:44;;;;;;;24.33;15.77;;;;;;;5.51;100.00;101314.38;5014296;28;20305;-75
2022/12/01 09:06:13;;;;;;;27.13;14.98;;;;;;;5.61;100.00;101318.75;5013875;28;20235;-72
2022/12/01 09:08:40;;;;;;;27.67;15.35;;;;;;;5.66;100.00;101318.69;5013706;28;20205;-74
2022/12/01 09:11:10;;;;;;;24.52;14.30;;;;;;;5.78;100.00;101313.19;5014939;28;20697;-72
2022/12/01 09:13:39;;;;;;;20.30;13.80;;;;;;;5.84;100.00;101307.78;5017482;28;20210;-73
2022/12/01 09:16:08;;;;;;;24.02;14.90;;;;;;;5.78;100.00;101316.75;5015232;28;20598;-73
2022/12/01 09:18:35;;;;;;;26.02;16.30;;;;;;;5.88;100.00;101317.56;5014804;28;20215;-75
2022/12/01 09:21:09;;;;;;;23.85;15.77;;;;;;;5.94;100.00;101309.47;5014091;28;20583;-72
2022/12/01 09:23:36;;;;;;;24.65;15.48;;;;;;;6.09;100.00;101315.56;5014321;28;20227;-72
2022/12/01 09:26:03;;;;;;;20.92;14.02;;;;;;;6.09;100.00;101311.09;5013758;28;20232;-72
2022/12/01 09:28:29;;;;;;;21.80;13.98;;;;;;;6.07;100.00;101310.22;5012671;28;20694;-72
2022/12/01 09:31:04;;;;;;;24.00;14.15;;;;;;;6.24;100.00;101312.66;5013678;28;20205;-74
2022/12/01 09:33:30;;;;;;;22.10;13.57;;;;;;;6.45;100.00;101304.38;5014393;28;20198;-73
2022/12/01 09:35:58;;;;;;;24.10;14.10;;;;;;;6.57;100.00;101305.09;5016562;28;20312;-72
2022/12/01 09:38:24;;;;;;;19.27;13.27;;;;;;;6.55;100.00;101309.59;5016552;28;20228;-74
2022/12/01 09:40:52;;;;;;;21.63;13.82;;;;;;;6.56;100.00;101298.88;5014313;28;20213;-75
2022/12/01 09:43:21;;;;;;;21.52;13.60;;;;;;;6.56;100.00;101304.22;5013308;28;20212;-73
2022/12/01 09:45:53;;;;;;;21.17;14.13;;;;;;;6.60;100.00;101299.69;5025585;28;20246;-72
2022/12/01 09:48:27;;;;;;;21.70;14.27;;;;;;;6.48;100.00;101298.09;5020368;28;20215;-73
2022/12/01 09:50:54;;;;;;;23.35;14.45;;;;;;;6.56;100.00;101289.97;5012810;28;20233;-74
2022/12/01 09:53:25;;;;;;;21.65;13.98;;;;;;;6.54;100.00;101283.75;5012653;28;20208;-73
2022/12/01 09:55:52;;;;;;;22.75;14.32;;;;;;;6.39;100.00;101276.81;5014110;28;20225;-76
2022/12/01 09:58:25;;;;;;;19.27;12.65;;;;;;;6.35;100.00;101275.06;5016164;28;20198;-75
2022/12/01 10:00:53;;;;;;;25.50;15.13;;;;;;;6.36;100.00;101268.84;5020355;28;20584;-74
2022/12/01 10:03:32;;;;;;;23.83;15.23;;;;;;;6.49;100.00;101270.44;5020538;28;20210;-73
2022/12/01 10:06:02;;;;;;;23.58;13.90;;;;;;;6.43;100.00;101270.50;5022088;28;20581;-74
2022/12/01 10:08:31;;;;;;;23.58;14.70;;;;;;;6.43;100.00;101268.72;5020835;28;20260;-73
2022/12/01 10:11:05;;;;;;;26.13;15.88;;;;;;;6.41;100.00;101267.84;5018835;28;20199;-74
2022/12/01 10:13:33;;;;;;;21.85;14.95;;;;;;;6.57;100.00;101267.63;5014933;28;20211;-73
2022/12/01 10:16:08;;;;;;;21.27;13.48;;;;;;;6.78;100.00;101256.56;5014292;28;20234;-74
2022/12/01 10:18:47;;;;;;;23.85;15.32;;;;;;;6.85;100.00;101252.91;4993563;28;20277;-72
2022/12/01 10:21:22;;;;;;;29.40;17.30;;;;;;;6.96;100.00;101251.81;4993241;28;20199;-74
2022/12/01 10:24:05;;;;;;;26.40;16.88;;;;;;;6.93;100.00;101247.41;4993890;28;20217;-72
2022/12/01 10:26:37;;;;;;;28.40;16.40;;;;;;;6.94;100.00;101246.50;4996791;28;20302;-75
2022/12/01 10:29:12;;;;;;;28.42;16.20;;;;;;;7.19;100.00;101241.63;4996232;28;20201;-73
2022/12/01 10:31:51;;;;;;;29.60;17.17;;;;;;;7.22;100.00;101251.38;4996237;28;20215;-71
2022/12/01 10:34:22;;;;;;;24.52;15.10;;;;;;;7.59;100.00;101251.56;4996254;28;20675;-73
2022/12/01 10:36:49;;;;;;;26.13;16.33;;;;;;;7.69;100.00;101241.56;4996086;28;20317;-73
2022/12/01 10:39:19;;;;;;;24.73;16.20;;;;;;;8.15;100.00;101238.78;4994989;28;20694;-73
2022/12/01 10:41:48;;;;;;;23.75;14.75;;;;;;;8.64;100.00;101227.84;4995830;28;20208;-74
2022/12/01 10:44:17;;;;;;;26.63;15.40;;;;;;;8.90;100.00;101227.22;4995536;28;20207;-71
2022/12/01 10:46:47;;;;;;;21.63;15.13;;;;;;;8.96;100.00;101235.13;4996375;28;20280;-72
2022/12/01 10:49:16;;;;;;;23.80;15.95;;;;;;;8.90;100.00;101230.78;4995698;28;20222;-73
2022/12/01 10:51:51;;;;;;;26.75;15.10;;;;;;;8.86;100.00;101225.53;4996350;28;20203;-73
2022/12/01 10:54:19;;;;;;;22.58;14.48;;;;;;;8.71;100.00;101229.50;4997879;28;20549;-72
2022/12/01 10:56:49;;;;;;;26.15;15.57;;;;;;;8.23;100.00;101227.91;5003380;28;20231;-73
2022/12/01 10:59:30;;;;;;;24.10;15.00;;;;;;;8.10;100.00;101224.59;5008435;28;20238;-74
2022/12/01 11:01:58;;;;;;;24.73;15.52;;;;;;;7.90;100.00;101218.78;5000682;28;20213;-74
2022/12/01 11:04:33;;;;;;;24.83;16.17;;;;;;;7.75;100.00;101230.69;5000197;28;20211;-72
2022/12/01 11:07:02;;;;;;;27.05;15.75;;;;;;;7.66;100.00;101220.16;4997155;28;20740;-71
2022/12/01 11:09:30;;;;;;;23.58;15.07;;;;;;;7.55;100.00;101219.50;4995730;28;20555;-74
2022/12/01 11:11:59;;;;;;;23.55;15.48;;;;;;;7.57;100.00;101215.84;4997753;28;20214;-75
2022/12/01 11:14:36;;;;;;;26.05;16.15;;;;;;;7.31;100.00;101219.06;4998699;28;20298;-74
2022/12/01 11:17:16;;;;;;;24.15;16.33;;;;;;;7.39;100.00;101217.09;5006115;28;20215;-73
2022/12/01 11:19:43;;;;;;;25.60;16.65;;;;;;;7.59;100.00;101210.47;5016439;28;20191;-73
2022/12/01 11:22:21;;;;;;;23.67;15.55;;;;;;;7.75;100.00;101211.03;5016280;28;20297;-75